createdAt,value
2019-06-20T00:02:01.116Z,3.70
2019-06-20T00:04:29.563Z,3.90
2019-06-20T00:06:58.020Z,3.63
2019-06-20T00:09:26.537Z,3.90
2019-06-20T00:11:55.072Z,3.87
2019-06-20T00:14:23.517Z,3.60
2019-06-20T00:16:52.418Z,3.60
2019-06-20T00:19:20.925Z,3.90
2019-06-20T00:21:49.371Z,4.10
2019-06-20T00:24:17.832Z,3.90
2019-06-20T00:26:46.279Z,4.20
2019-06-20T00:29:14.815Z,3.50
2019-06-20T00:31:43.259Z,3.90
2019-06-20T00:34:11.713Z,4.20
2019-06-20T00:36:40.180Z,4.57
2019-06-20T00:39:09.000Z,4.63
2019-06-20T00:41:38.011Z,4.83
2019-06-20T00:44:06.528Z,4.50
2019-06-20T00:46:34.989Z,5.43
2019-06-20T00:49:03.592Z,4.30
2019-06-20T00:51:32.062Z,4.47
2019-06-20T00:54:00.511Z,4.67
2019-06-20T00:56:28.986Z,4.40
2019-06-20T00:58:57.586Z,4.40
2019-06-20T01:01:26.048Z,4.60
2019-06-20T01:03:54.586Z,4.77
2019-06-20T01:06:23.048Z,4.30
2019-06-20T01:08:51.566Z,4.50
2019-06-20T01:11:20.029Z,4.40
2019-06-20T01:13:48.566Z,5.60
2019-06-20T01:16:17.080Z,5.33
2019-06-20T01:18:45.534Z,5.33
2019-06-20T01:21:14.009Z,5.10
2019-06-20T01:23:42.531Z,5.47
2019-06-20T01:26:10.999Z,4.83
2019-06-20T01:28:39.523Z,4.30
2019-06-20T01:31:08.059Z,5.20
2019-06-20T01:33:36.500Z,4.03
2019-06-20T01:36:05.032Z,4.50
2019-06-20T01:38:33.479Z,4.53
2019-06-20T01:41:05.837Z,4.17
2019-06-20T01:43:32.111Z,4.53
2019-06-20T01:46:00.631Z,4.60
2019-06-20T01:48:29.090Z,4.00
2019-06-20T01:50:57.539Z,5.03
2019-06-20T01:53:26.139Z,4.43
2019-06-20T01:55:54.659Z,4.70
2019-06-20T01:58:23.373Z,4.77
2019-06-20T02:00:52.027Z,4.80
2019-06-20T02:03:21.136Z,5.00
2019-06-20T02:05:49.738Z,4.97
2019-06-20T02:08:18.390Z,4.50
2019-06-20T02:10:46.923Z,4.90
2019-06-20T02:13:15.714Z,4.50
2019-06-20T02:15:49.513Z,4.43
2019-06-20T02:18:18.092Z,4.80
2019-06-20T02:20:54.377Z,4.60
2019-06-20T02:23:23.543Z,4.70
2019-06-20T02:25:52.198Z,4.80
2019-06-20T02:28:21.375Z,4.70
2019-06-20T02:30:50.001Z,5.20
2019-06-20T02:33:18.531Z,5.80
2019-06-20T02:35:47.118Z,4.60
2019-06-20T02:38:15.645Z,4.70
2019-06-20T02:40:44.256Z,4.83
2019-06-20T02:43:12.861Z,4.20
2019-06-20T02:45:41.448Z,5.00
2019-06-20T02:48:09.905Z,5.20
2019-06-20T02:50:38.459Z,4.57
2019-06-20T02:53:07.020Z,4.83
2019-06-20T02:55:35.620Z,4.73
2019-06-20T02:58:04.319Z,4.90
2019-06-20T03:00:54.316Z,5.50
2019-06-20T03:03:22.972Z,4.70
2019-06-20T03:05:51.583Z,4.67
2019-06-20T03:08:20.115Z,4.40
2019-06-20T03:10:48.633Z,4.60
2019-06-20T03:13:17.163Z,4.23
2019-06-20T03:15:45.678Z,4.90
2019-06-20T03:18:14.162Z,5.40
2019-06-20T03:20:42.627Z,4.47
2019-06-20T03:23:11.075Z,4.50
2019-06-20T03:25:39.612Z,4.63
2019-06-20T03:28:08.141Z,4.90
2019-06-20T03:30:36.731Z,4.67
2019-06-20T03:33:05.191Z,4.33
2019-06-20T03:35:33.652Z,4.60
2019-06-20T03:38:02.099Z,4.87
2019-06-20T03:40:30.568Z,5.20
2019-06-20T03:42:59.083Z,5.20
2019-06-20T03:45:27.681Z,4.93
2019-06-20T03:47:56.162Z,4.10
2019-06-20T03:50:24.819Z,4.57
2019-06-20T03:53:02.299Z,5.43
2019-06-20T03:55:32.051Z,5.60
2019-06-20T03:58:01.547Z,5.23
2019-06-20T04:00:32.705Z,5.43
2019-06-20T04:03:01.304Z,5.07
2019-06-20T04:05:29.753Z,4.10
2019-06-20T04:07:58.383Z,5.17
2019-06-20T04:10:26.827Z,4.40
2019-06-20T04:12:55.360Z,4.10
2019-06-20T04:15:23.968Z,4.20
2019-06-20T04:17:52.418Z,3.43
2019-06-20T04:20:20.894Z,3.70
2019-06-20T04:22:49.413Z,3.77
2019-06-20T04:25:17.868Z,3.40
2019-06-20T04:27:46.311Z,3.80
2019-06-20T04:30:15.521Z,4.10
2019-06-20T04:32:43.982Z,3.47
2019-06-20T04:35:12.765Z,2.97
2019-06-20T04:37:41.224Z,3.90
2019-06-20T04:40:10.088Z,3.70
2019-06-20T04:42:38.556Z,3.77
2019-06-20T04:45:08.979Z,4.00
2019-06-20T04:47:37.447Z,3.27
2019-06-20T04:50:06.236Z,3.37
2019-06-20T04:52:34.695Z,4.00
2019-06-20T04:55:03.725Z,3.73
2019-06-20T04:57:32.229Z,3.80
2019-06-20T05:00:03.565Z,3.70
2019-06-20T05:02:35.219Z,4.10
2019-06-20T05:05:06.148Z,3.73
2019-06-20T05:07:35.037Z,4.13
2019-06-20T05:10:05.335Z,3.00
2019-06-20T05:12:33.854Z,3.23
2019-06-20T05:15:03.615Z,3.20
2019-06-20T05:17:32.152Z,3.67
2019-06-20T05:20:00.620Z,4.17
2019-06-20T05:22:29.162Z,3.67
2019-06-20T05:24:57.653Z,3.50
2019-06-20T05:27:26.161Z,3.20
2019-06-20T05:29:54.608Z,3.27
2019-06-20T05:32:23.072Z,3.50
2019-06-20T05:34:51.610Z,3.10
2019-06-20T05:37:20.141Z,3.00
2019-06-20T05:39:48.584Z,2.90
2019-06-20T05:42:17.123Z,4.40
2019-06-20T05:44:45.638Z,4.00
2019-06-20T05:47:14.250Z,4.10
2019-06-20T05:49:42.696Z,3.03
2019-06-20T05:52:11.157Z,2.53
2019-06-20T05:54:39.869Z,3.10
2019-06-20T05:57:08.449Z,3.37
2019-06-20T05:59:36.891Z,3.60
2019-06-20T06:02:05.474Z,4.50
2019-06-20T06:04:33.940Z,4.10
2019-06-20T06:07:02.593Z,4.27
2019-06-20T06:09:31.159Z,4.50
2019-06-20T06:11:59.680Z,3.90
2019-06-20T06:14:28.277Z,4.30
2019-06-20T06:16:56.723Z,4.33
2019-06-20T06:19:25.219Z,4.43
2019-06-20T06:21:53.905Z,4.30
2019-06-20T06:24:22.519Z,3.70
2019-06-20T06:26:50.987Z,4.30
2019-06-20T06:29:19.507Z,4.30
2019-06-20T06:31:48.032Z,3.30
2019-06-20T06:34:16.572Z,3.03
2019-06-20T06:36:45.015Z,2.77
2019-06-20T06:39:13.471Z,2.63
2019-06-20T06:41:41.996Z,3.10
2019-06-20T06:44:10.650Z,3.47
2019-06-20T06:46:45.006Z,4.13
2019-06-20T06:49:09.355Z,4.30
2019-06-20T06:51:38.359Z,4.40
2019-06-20T06:54:06.929Z,4.00
2019-06-20T06:56:35.375Z,3.90
2019-06-20T06:59:04.104Z,4.30
2019-06-20T07:01:32.627Z,4.17
2019-06-20T07:04:01.084Z,3.70
2019-06-20T07:06:29.788Z,4.90
2019-06-20T07:08:58.377Z,4.40
2019-06-20T07:11:26.897Z,4.37
2019-06-20T07:13:55.429Z,3.23
2019-06-20T07:16:23.943Z,3.10
2019-06-20T07:18:53.192Z,3.30
2019-06-20T07:21:22.339Z,3.53
2019-06-20T07:23:50.848Z,3.33
2019-06-20T07:26:19.387Z,3.00
2019-06-20T07:28:51.428Z,3.40
2019-06-20T07:31:18.023Z,3.00
2019-06-20T07:33:46.467Z,3.23
2019-06-20T07:36:14.931Z,3.30
2019-06-20T07:38:43.392Z,3.20
2019-06-20T07:41:11.939Z,3.30
2019-06-20T07:43:40.404Z,3.20
2019-06-20T07:46:09.063Z,3.57
2019-06-20T07:48:37.594Z,2.80
2019-06-20T07:51:06.031Z,3.27
2019-06-20T07:53:34.575Z,2.73
2019-06-20T07:56:03.097Z,3.30
2019-06-20T07:58:31.558Z,3.03
2019-06-20T08:01:00.010Z,2.97
2019-06-20T08:03:28.535Z,2.87
2019-06-20T08:05:57.023Z,2.77
2019-06-20T08:08:25.469Z,3.00
2019-06-20T08:10:54.004Z,3.10
2019-06-20T08:13:22.520Z,2.83
2019-06-20T08:15:51.071Z,3.33
2019-06-20T08:18:19.587Z,3.03
2019-06-20T08:20:48.271Z,2.73
2019-06-20T08:23:16.757Z,2.90
2019-06-20T08:25:45.223Z,2.97
2019-06-20T08:28:13.676Z,3.00
2019-06-20T08:30:42.764Z,2.60
2019-06-20T08:33:12.257Z,3.00
2019-06-20T08:35:41.031Z,2.77
2019-06-20T08:38:09.495Z,2.90
2019-06-20T08:40:39.759Z,2.70
2019-06-20T08:43:27.555Z,2.40
2019-06-20T08:45:56.735Z,2.40
2019-06-20T08:48:26.246Z,2.77
2019-06-20T08:50:56.853Z,2.73
2019-06-20T08:53:24.893Z,2.60
2019-06-20T08:56:12.691Z,2.70
2019-06-20T08:58:41.136Z,2.70
2019-06-20T09:01:09.672Z,2.50
2019-06-20T09:03:38.191Z,2.60
2019-06-20T09:06:06.733Z,2.73
2019-06-20T09:08:35.249Z,2.77
2019-06-20T09:11:04.060Z,2.90
2019-06-20T09:13:32.716Z,3.13
2019-06-20T09:16:01.486Z,3.30
2019-06-20T09:18:30.039Z,3.73
2019-06-20T09:20:58.567Z,2.57
2019-06-20T09:23:27.099Z,3.00
2019-06-20T09:25:55.946Z,2.50
2019-06-20T09:28:24.555Z,3.00
2019-06-20T09:30:53.909Z,2.43
2019-06-20T09:33:23.226Z,2.77
2019-06-20T09:35:53.593Z,2.30
2019-06-20T09:38:21.934Z,3.00
2019-06-20T09:40:51.913Z,2.70
2019-06-20T09:43:27.652Z,2.50
2019-06-20T09:45:51.358Z,2.60
2019-06-20T09:48:21.004Z,2.87
2019-06-20T09:50:51.139Z,3.13
2019-06-20T09:53:19.714Z,2.70
2019-06-20T09:55:48.854Z,2.60
2019-06-20T09:58:18.415Z,2.63
2019-06-20T10:00:48.176Z,2.90
2019-06-20T10:03:17.402Z,2.00
2019-06-20T10:05:47.304Z,1.80
2019-06-20T10:08:16.101Z,2.20
2019-06-20T10:10:45.464Z,1.80
2019-06-20T10:13:14.806Z,2.00
2019-06-20T10:15:43.255Z,1.80
2019-06-20T10:18:11.858Z,2.63
2019-06-20T10:20:40.442Z,2.07
2019-06-20T10:23:09.048Z,2.73
2019-06-20T10:25:37.947Z,2.50
2019-06-20T10:28:06.819Z,2.40
2019-06-20T10:30:35.336Z,2.20
2019-06-20T10:33:04.074Z,2.13
2019-06-20T10:35:32.607Z,2.03
2019-06-20T10:38:01.160Z,2.43
2019-06-20T10:40:29.815Z,2.47
2019-06-20T10:42:58.264Z,2.37
2019-06-20T10:45:27.478Z,2.10
2019-06-20T10:47:56.136Z,1.90
2019-06-20T10:50:25.211Z,2.30
2019-06-20T10:52:54.332Z,2.43
2019-06-20T10:55:23.236Z,2.30
2019-06-20T10:57:52.050Z,2.03
2019-06-20T11:00:30.859Z,1.97
2019-06-20T11:02:53.423Z,2.10
2019-06-20T11:05:22.215Z,2.33
2019-06-20T11:07:51.182Z,1.97
2019-06-20T11:10:20.175Z,1.93
2019-06-20T11:12:55.278Z,2.37
2019-06-20T11:15:20.411Z,2.50
2019-06-20T11:17:49.056Z,2.03
2019-06-20T11:20:18.114Z,2.40
2019-06-20T11:22:47.812Z,2.33
2019-06-20T11:25:19.730Z,2.13
2019-06-20T11:27:49.148Z,2.20
2019-06-20T11:30:25.916Z,2.50
2019-06-20T11:32:54.355Z,2.20
2019-06-20T11:35:22.907Z,2.10
2019-06-20T11:37:51.500Z,2.10
2019-06-20T11:40:20.770Z,2.73
2019-06-20T11:42:49.217Z,2.13
2019-06-20T11:45:18.035Z,2.20
2019-06-20T11:47:47.344Z,2.77
2019-06-20T11:50:16.813Z,2.30
2019-06-20T11:52:45.880Z,2.20
2019-06-20T11:55:15.830Z,2.27
2019-06-20T11:57:44.499Z,2.60
2019-06-20T12:00:13.635Z,2.33
2019-06-20T12:02:43.960Z,2.67
2019-06-20T12:05:12.973Z,2.60
2019-06-20T12:07:43.155Z,2.73
2019-06-20T12:10:12.324Z,2.30
2019-06-20T12:12:41.133Z,2.27
2019-06-20T12:15:11.423Z,2.20
2019-06-20T12:17:41.736Z,2.17
2019-06-20T12:20:11.111Z,2.37
2019-06-20T12:22:41.288Z,2.00
2019-06-20T12:25:11.162Z,2.27
2019-06-20T12:27:40.779Z,2.23
2019-06-20T12:30:12.035Z,2.43
2019-06-20T12:32:40.684Z,1.67
2019-06-20T12:35:10.023Z,2.07
2019-06-20T12:37:40.317Z,2.30
2019-06-20T12:40:09.704Z,2.53
2019-06-20T12:42:40.897Z,2.30
2019-06-20T12:45:10.494Z,1.80
2019-06-20T12:47:40.218Z,2.57
2019-06-20T12:50:10.026Z,2.30
2019-06-20T12:52:39.432Z,2.20
2019-06-20T12:55:09.049Z,2.03
2019-06-20T12:57:38.620Z,2.43
2019-06-20T13:00:10.771Z,2.83
2019-06-20T13:02:40.416Z,2.10
2019-06-20T13:05:10.280Z,1.77
2019-06-20T13:07:40.432Z,2.50
2019-06-20T13:10:09.447Z,2.20
2019-06-20T13:12:37.988Z,2.00
2019-06-20T13:15:07.916Z,2.47
2019-06-20T13:17:38.242Z,2.20
2019-06-20T13:20:10.313Z,2.20
2019-06-20T13:22:39.506Z,2.00
2019-06-20T13:25:09.634Z,2.20
2019-06-20T13:27:39.287Z,1.87
2019-06-20T13:30:10.287Z,2.17
2019-06-20T13:32:40.160Z,1.60
2019-06-20T13:35:10.111Z,1.87
2019-06-20T13:37:40.219Z,1.47
2019-06-20T13:40:12.520Z,2.43
2019-06-20T13:42:42.619Z,2.07
2019-06-20T13:45:25.519Z,1.70
2019-06-20T13:47:54.808Z,1.60
2019-06-20T13:50:25.682Z,2.30
2019-06-20T13:52:54.640Z,2.47
2019-06-20T13:55:23.300Z,2.53
2019-06-20T13:57:52.056Z,1.97
2019-06-20T14:00:23.032Z,2.43
2019-06-20T14:02:51.873Z,2.03
2019-06-20T14:05:20.521Z,2.27
2019-06-20T14:07:53.303Z,2.10
2019-06-20T14:10:19.820Z,2.00
2019-06-20T14:12:48.807Z,2.00
2019-06-20T14:15:18.546Z,2.00
2019-06-20T14:17:47.585Z,1.80
2019-06-20T14:20:17.175Z,2.10
2019-06-20T14:22:45.703Z,2.30
2019-06-20T14:25:15.852Z,2.10
2019-06-20T14:27:46.043Z,2.20
2019-06-20T14:30:16.492Z,1.80
2019-06-20T14:32:45.024Z,2.00
2019-06-20T14:35:14.095Z,2.30
2019-06-20T14:37:44.276Z,2.50
2019-06-20T14:40:13.058Z,1.93
2019-06-20T14:42:42.759Z,2.40
2019-06-20T14:45:12.180Z,2.30
2019-06-20T14:47:40.672Z,1.87
2019-06-20T14:50:11.162Z,2.07
2019-06-20T14:52:39.836Z,1.97
2019-06-20T14:55:08.891Z,2.00
2019-06-20T14:57:37.605Z,2.03
2019-06-20T15:00:08.100Z,1.90
2019-06-20T15:02:38.699Z,2.33
2019-06-20T15:05:10.266Z,2.20
2019-06-20T15:07:38.772Z,2.10
2019-06-20T15:10:07.308Z,2.00
2019-06-20T15:12:35.801Z,1.97
2019-06-20T15:15:05.980Z,2.67
2019-06-20T15:17:34.502Z,2.50
2019-06-20T15:20:04.651Z,3.30
2019-06-20T15:22:33.184Z,3.70
2019-06-20T15:25:01.802Z,3.57
2019-06-20T15:27:30.500Z,3.60
2019-06-20T15:29:59.007Z,3.37
2019-06-20T15:32:27.477Z,3.20
2019-06-20T15:34:57.011Z,3.40
2019-06-20T15:37:25.739Z,3.03
2019-06-20T15:39:55.432Z,3.37
2019-06-20T15:42:24.121Z,2.80
2019-06-20T15:44:53.782Z,2.83
2019-06-20T15:47:22.372Z,2.90
2019-06-20T15:49:50.826Z,3.10
2019-06-20T15:52:19.313Z,3.07
2019-06-20T15:54:47.831Z,3.77
2019-06-20T15:57:16.370Z,3.00
2019-06-20T15:59:44.899Z,3.20
2019-06-20T16:02:13.360Z,3.63
2019-06-20T16:04:41.905Z,3.17
2019-06-20T16:07:10.416Z,3.00
2019-06-20T16:09:39.024Z,3.57
2019-06-20T16:12:07.559Z,3.37
2019-06-20T16:14:36.027Z,3.17
2019-06-20T16:17:04.475Z,3.70
2019-06-20T16:19:32.941Z,2.80
2019-06-20T16:22:01.388Z,3.27
2019-06-20T16:24:29.939Z,2.90
2019-06-20T16:26:58.523Z,3.10
2019-06-20T16:29:27.061Z,2.67
2019-06-20T16:31:55.583Z,3.17
2019-06-20T16:34:24.115Z,3.40
2019-06-20T16:36:52.580Z,3.50
2019-06-20T16:39:21.028Z,4.03
2019-06-20T16:41:49.492Z,3.80
2019-06-20T16:44:17.940Z,4.03
2019-06-20T16:46:46.473Z,4.60
2019-06-20T16:49:14.952Z,3.70
2019-06-20T16:51:43.500Z,3.43
2019-06-20T16:54:12.013Z,3.80
2019-06-20T16:56:40.540Z,4.17
2019-06-20T16:59:09.002Z,3.97
2019-06-20T17:01:37.739Z,3.80
2019-06-20T17:04:06.198Z,4.00
2019-06-20T17:06:34.664Z,4.10
2019-06-20T17:09:03.330Z,4.10
2019-06-20T17:11:31.863Z,3.90
2019-06-20T17:14:00.459Z,4.23
2019-06-20T17:16:29.005Z,4.60
2019-06-20T17:18:57.527Z,3.70
2019-06-20T17:21:25.987Z,4.30
2019-06-20T17:23:54.448Z,4.90
2019-06-20T17:26:22.924Z,4.50
2019-06-20T17:28:51.455Z,4.33
2019-06-20T17:31:19.908Z,4.87
2019-06-20T17:33:57.051Z,4.83
2019-06-20T17:36:18.991Z,4.23
2019-06-20T17:38:47.588Z,4.03
2019-06-20T17:41:16.103Z,4.10
2019-06-20T17:43:44.579Z,4.27
2019-06-20T17:46:13.120Z,4.50
2019-06-20T17:48:41.628Z,4.97
2019-06-20T17:51:10.167Z,4.30
2019-06-20T17:53:38.642Z,5.23
2019-06-20T17:56:07.243Z,4.87
2019-06-20T17:58:35.686Z,5.20
2019-06-20T18:01:04.492Z,5.30
2019-06-20T18:03:33.053Z,5.23
2019-06-20T18:06:01.592Z,5.30
2019-06-20T18:08:30.109Z,5.10
2019-06-20T18:10:58.622Z,5.70
2019-06-20T18:13:27.146Z,5.33
2019-06-20T18:15:55.687Z,5.80
2019-06-20T18:18:24.207Z,4.90
2019-06-20T18:20:52.756Z,5.70
2019-06-20T18:23:21.212Z,4.97
2019-06-20T18:25:49.766Z,5.77
2019-06-20T18:28:18.765Z,6.57
2019-06-20T18:30:47.674Z,5.83
2019-06-20T18:33:16.502Z,5.90
2019-06-20T18:35:46.257Z,6.00
2019-06-20T18:38:15.092Z,5.60
2019-06-20T18:40:43.865Z,5.93
2019-06-20T18:43:12.560Z,5.27
2019-06-20T18:45:41.341Z,5.50
2019-06-20T18:48:10.305Z,5.33
2019-06-20T18:50:38.836Z,4.90
2019-06-20T18:53:07.777Z,4.77
2019-06-20T18:55:36.500Z,5.40
2019-06-20T18:58:05.593Z,5.50
2019-06-20T19:00:35.274Z,5.80
2019-06-20T19:03:04.606Z,5.53
2019-06-20T19:05:34.460Z,5.70
2019-06-20T19:08:03.277Z,6.30
2019-06-20T19:10:33.657Z,5.77
2019-06-20T19:13:02.185Z,5.77
2019-06-20T19:15:30.761Z,5.70
2019-06-20T19:17:59.278Z,5.47
2019-06-20T19:20:27.807Z,5.13
2019-06-20T19:22:56.260Z,5.00
2019-06-20T19:25:24.719Z,4.60
2019-06-20T19:27:53.211Z,3.70
2019-06-20T19:30:24.795Z,4.17
2019-06-20T19:32:53.272Z,3.60
2019-06-20T19:35:21.978Z,3.93
2019-06-20T19:37:50.517Z,3.77
2019-06-20T19:40:19.577Z,3.30
2019-06-20T19:42:49.536Z,3.40
2019-06-20T19:45:18.408Z,3.37
2019-06-20T19:47:47.091Z,2.97
2019-06-20T19:50:16.185Z,2.97
2019-06-20T19:52:45.059Z,2.80
2019-06-20T19:55:14.280Z,3.33
2019-06-20T19:57:43.477Z,3.50
2019-06-20T20:00:12.882Z,3.10
2019-06-20T20:02:43.237Z,3.00
2019-06-20T20:05:19.057Z,3.60
2019-06-20T20:07:43.394Z,3.00
2019-06-20T20:10:13.906Z,2.83
2019-06-20T20:12:42.637Z,2.70
2019-06-20T20:15:11.532Z,3.10
2019-06-20T20:17:40.077Z,3.17
2019-06-20T20:20:08.959Z,3.30
2019-06-20T20:22:37.568Z,2.77
2019-06-20T20:25:07.361Z,2.40
2019-06-20T20:27:35.910Z,2.67
2019-06-20T20:30:07.574Z,2.93
2019-06-20T20:32:36.103Z,2.53
2019-06-20T20:35:05.066Z,2.83
2019-06-20T20:37:33.556Z,2.77
2019-06-20T20:40:02.032Z,3.40
2019-06-20T20:42:30.543Z,2.80
2019-06-20T20:44:59.092Z,2.80
2019-06-20T20:47:28.468Z,1.80
2019-06-20T20:49:57.163Z,2.00
2019-06-20T20:52:25.623Z,2.17
2019-06-20T20:54:54.072Z,2.00
2019-06-20T20:57:22.539Z,2.00
2019-06-20T20:59:50.979Z,2.00
2019-06-20T21:02:19.444Z,2.13
2019-06-20T21:04:47.911Z,2.70
2019-06-20T21:07:16.359Z,2.30
2019-06-20T21:09:44.830Z,3.40
2019-06-20T21:12:13.352Z,3.30
2019-06-20T21:14:41.821Z,3.03
2019-06-20T21:17:10.340Z,3.67
2019-06-20T21:19:38.799Z,3.27
2019-06-20T21:22:07.263Z,3.57
2019-06-20T21:24:35.724Z,4.00
2019-06-20T21:27:04.192Z,3.70
2019-06-20T21:29:32.776Z,3.43
2019-06-20T21:32:01.219Z,3.23
2019-06-20T21:34:29.680Z,3.20
2019-06-20T21:36:58.212Z,3.40
2019-06-20T21:39:26.671Z,3.60
2019-06-20T21:41:55.120Z,3.67
2019-06-20T21:44:23.650Z,4.23
2019-06-20T21:46:52.103Z,4.07
2019-06-20T21:49:20.568Z,3.67
2019-06-20T21:51:49.102Z,4.50
2019-06-20T21:54:17.560Z,4.43
2019-06-20T21:56:46.087Z,3.60
2019-06-20T21:59:14.610Z,3.23
2019-06-20T22:01:43.214Z,3.40
2019-06-20T22:04:12.695Z,2.97
2019-06-20T22:06:41.227Z,2.20
2019-06-20T22:09:10.012Z,3.20
2019-06-20T22:11:38.490Z,3.10
2019-06-20T22:14:06.935Z,1.90
2019-06-20T22:16:35.384Z,3.40
2019-06-20T22:19:04.315Z,1.73
2019-06-20T22:21:32.895Z,2.10
2019-06-20T22:24:01.427Z,2.60
2019-06-20T22:26:30.081Z,3.00
2019-06-20T22:28:58.580Z,3.00
2019-06-20T22:31:27.035Z,2.60
2019-06-20T22:33:55.511Z,2.83
2019-06-20T22:36:36.136Z,2.73
2019-06-20T22:38:54.240Z,2.97
2019-06-20T22:41:22.768Z,2.73
2019-06-20T22:43:51.217Z,3.23
2019-06-20T22:46:19.680Z,3.47
2019-06-20T22:48:48.148Z,3.60
2019-06-20T22:51:17.101Z,4.30
2019-06-20T22:54:04.884Z,3.90
2019-06-20T22:56:33.339Z,4.20
2019-06-20T22:59:01.875Z,3.50
2019-06-20T23:01:30.337Z,3.10
2019-06-20T23:03:58.868Z,3.87
2019-06-20T23:06:27.460Z,2.83
2019-06-20T23:08:55.936Z,3.53
2019-06-20T23:11:24.472Z,3.00
2019-06-20T23:13:52.921Z,3.40
2019-06-20T23:16:21.382Z,3.37
2019-06-20T23:18:49.913Z,3.00
2019-06-20T23:21:18.446Z,3.30
2019-06-20T23:23:46.894Z,2.73
2019-06-20T23:26:15.500Z,2.67
2019-06-20T23:28:45.598Z,2.70
2019-06-20T23:31:14.132Z,2.90
2019-06-20T23:33:42.580Z,3.30
2019-06-20T23:36:11.029Z,2.83
2019-06-20T23:38:39.491Z,2.97
2019-06-20T23:41:07.950Z,4.00
2019-06-20T23:43:36.410Z,3.20
2019-06-20T23:46:04.859Z,2.93
2019-06-20T23:48:33.321Z,2.70
2019-06-20T23:51:01.843Z,2.97
2019-06-20T23:53:30.308Z,3.17
2019-06-20T23:55:58.771Z,2.87
2019-06-20T23:58:27.611Z,2.70
